This is the latest recevied weather packets stored in our database for station/object F1JRN-13. If no packets are shown the sender has not sent any weather packets the latest 10 day(s).
| Time | Temp. | Humidity | Pressure | Rain* | Wind** | Luminosity | Snow |
|---|---|---|---|---|---|---|---|
| 1777162613 | 13.33° C | 85% | 1014.4 hPa | 0 mm | - | - | - |
| 1777161533 | 13.33° C | 85% | 1014.3 hPa | 0 mm | - | - | - |
| 1777156133 | 13.89° C | 82% | 1014.3 hPa | 0 mm | - | - | - |
| 1777153973 | 14.44° C | 82% | 1014.1 hPa | 0 mm | - | - | - |
| 1777152894 | 15° C | 81% | 1014.1 hPa | 0 mm | - | - | - |
| 1777151813 | 15° C | 81% | 1014 hPa | 0 mm | - | - | - |
| 1777145873 | 15.56° C | 77% | 1013.7 hPa | 0 mm | - | - | - |
| 1777145334 | 15.56° C | 77% | 1013.4 hPa | 0 mm | - | - | - |
| 1777143713 | 15.56° C | 76% | 1013.3 hPa | 0 mm | - | - | - |
| 1777142093 | 16.11° C | 76% | 1013 hPa | 0 mm | - | - | - |
| 1777135613 | 16.67° C | 74% | 1013 hPa | 0 mm | - | - | - |
| 1777133453 | 16.67° C | 73% | 1012.7 hPa | 0 mm | - | - | - |
| 1777131294 | 17.78° C | 70% | 1012.7 hPa | 0 mm | - | - | - |
| 1777130754 | 17.78° C | 70% | 1012.8 hPa | 0 mm | - | - | - |
| 1777130214 | 17.78° C | 70% | 1012.7 hPa | 0 mm | - | - | - |
| 1777127513 | 17.22° C | 74% | 1013 hPa | 0 mm | - | - | - |
| 1777126974 | 17.22° C | 73% | 1013.1 hPa | 0 mm | - | - | - |
| 1777125894 | 17.22° C | 73% | 1013.3 hPa | 0 mm | - | - | - |
| 1777123194 | 17.78° C | 70% | 1013.4 hPa | 0 mm | - | - | - |
| 1777119413 | 18.33° C | 70% | 1013.5 hPa | 0 mm | - | - | - |
| 1777115634 | 17.22° C | 77% | 1013.8 hPa | 0 mm | - | - | - |
| 1777111854 | 15.56° C | 80% | 1013.9 hPa | 0 mm | - | - | - |
| 1777106454 | 15° C | 82% | 1013.6 hPa | 0 mm | - | - | - |
| 1777105374 | 15° C | 82% | 1013.4 hPa | 0 mm | - | - | - |
| 1777104294 | 15° C | 83% | 1013.4 hPa | 0 mm | - | - | - |
* Rain latest hour (hover to see other rain measurements)
** Current wind speed in m/s (hover to see current wind gust speed)